createdAt,value
2023-02-24T00:02:52.759Z,97567.57
2023-02-24T00:05:56.018Z,97557.71
2023-02-24T00:08:59.223Z,97552.48
2023-02-24T00:12:05.944Z,97547.23
2023-02-24T00:15:09.511Z,97547.00
2023-02-24T00:18:12.730Z,97542.23
2023-02-24T00:21:17.221Z,97535.73
2023-02-24T00:24:22.242Z,97534.33
2023-02-24T00:27:25.495Z,97531.51
2023-02-24T00:30:30.079Z,97526.19
2023-02-24T00:33:34.471Z,97525.88
2023-02-24T00:36:37.677Z,97521.42
2023-02-24T00:39:41.846Z,97519.48
2023-02-24T00:42:48.649Z,97522.29
2023-02-24T00:45:52.207Z,97518.53
2023-02-24T00:48:57.266Z,97506.89
2023-02-24T00:52:00.490Z,97503.21
2023-02-24T00:55:14.043Z,97495.70
2023-02-24T00:58:19.674Z,97491.63
2023-02-24T01:01:25.475Z,97492.10
2023-02-24T01:04:29.428Z,97489.38
2023-02-24T01:07:33.141Z,97483.41
2023-02-24T01:10:36.366Z,97481.33
2023-02-24T01:13:39.630Z,97478.66
2023-02-24T01:16:50.676Z,97477.65
2023-02-24T01:19:55.155Z,97473.59
2023-02-24T01:22:58.846Z,97472.41
2023-02-24T01:26:03.232Z,97470.45
2023-02-24T01:29:09.802Z,97466.33
2023-02-24T01:32:20.464Z,97466.40
2023-02-24T01:35:25.757Z,97461.30
2023-02-24T01:38:28.991Z,97459.89
2023-02-24T01:41:32.515Z,97453.80
2023-02-24T01:44:35.706Z,97447.15
2023-02-24T01:47:39.332Z,97451.45
2023-02-24T01:50:42.962Z,97447.86
2023-02-24T01:53:46.681Z,97446.61
2023-02-24T01:56:52.885Z,97445.60
2023-02-24T02:00:02.265Z,97443.80
2023-02-24T02:03:13.325Z,97439.11
2023-02-24T02:06:17.911Z,97436.05
2023-02-24T02:09:21.267Z,97431.28
2023-02-24T02:12:29.100Z,97425.95
2023-02-24T02:15:43.519Z,97421.11
2023-02-24T02:19:12.808Z,97416.20
2023-02-24T02:22:23.528Z,97415.73
2023-02-24T02:25:44.901Z,97415.66
2023-02-24T02:29:25.577Z,97407.52
2023-02-24T02:32:53.156Z,97408.38
2023-02-24T02:36:03.063Z,97405.01
2023-02-24T02:39:35.228Z,97397.44
2023-02-24T02:42:47.617Z,97397.90
2023-02-24T02:45:58.162Z,97395.88
2023-02-24T02:49:30.491Z,97392.98
2023-02-24T02:52:47.133Z,97385.41
2023-02-24T02:56:08.402Z,97382.60
2023-02-24T02:59:14.907Z,97382.59
2023-02-24T03:02:21.536Z,97379.77
2023-02-24T03:05:33.194Z,97377.59
2023-02-24T03:08:40.379Z,97372.19
2023-02-24T03:11:48.353Z,97371.25
2023-02-24T03:15:02.083Z,97372.20
2023-02-24T03:18:13.473Z,97367.65
2023-02-24T03:21:39.205Z,97364.91
2023-02-24T03:24:45.706Z,97361.23
2023-02-24T03:28:08.482Z,97358.59
2023-02-24T03:31:50.980Z,97359.75
2023-02-24T03:35:04.364Z,97362.73
2023-02-24T03:38:12.089Z,97360.39
2023-02-24T03:41:17.223Z,97352.27
2023-02-24T03:44:20.605Z,97350.08
2023-02-24T03:47:25.746Z,97345.23
2023-02-24T03:50:31.909Z,97350.00
2023-02-24T03:54:03.449Z,97341.86
2023-02-24T03:57:54.792Z,97333.59
2023-02-24T04:01:31.043Z,97332.33
2023-02-24T04:04:45.597Z,97326.36
2023-02-24T04:08:09.965Z,97320.43
2023-02-24T04:11:30.754Z,97314.27
2023-02-24T04:14:47.607Z,97309.10
2023-02-24T04:17:57.716Z,97305.18
2023-02-24T04:21:05.577Z,97302.06
2023-02-24T04:24:15.865Z,97298.92
2023-02-24T04:27:21.189Z,97289.71
2023-02-24T04:30:29.793Z,97287.36
2023-02-24T04:33:33.613Z,97283.70
2023-02-24T04:36:38.380Z,97283.30
2023-02-24T04:39:41.859Z,97280.48
2023-02-24T04:42:51.999Z,97278.61
2023-02-24T04:45:56.150Z,97272.36
2023-02-24T04:49:02.390Z,97266.19
2023-02-24T04:52:05.884Z,97265.41
2023-02-24T04:55:10.886Z,97259.79
2023-02-24T04:58:19.476Z,97255.03
2023-02-24T05:01:23.071Z,97242.13
2023-02-24T05:04:26.651Z,97237.38
2023-02-24T05:07:30.024Z,97229.08
2023-02-24T05:10:39.881Z,97226.51
2023-02-24T05:13:47.204Z,97223.15
2023-02-24T05:16:51.112Z,97220.66
2023-02-24T05:20:12.777Z,97217.30
2023-02-24T05:23:17.015Z,97215.04
2023-02-24T05:26:24.069Z,97215.52
2023-02-24T05:29:30.640Z,97211.14
2023-02-24T05:32:35.818Z,97214.02
2023-02-24T05:35:39.608Z,97211.61
2023-02-24T05:38:56.613Z,97204.03
2023-02-24T05:42:06.272Z,97206.93
2023-02-24T05:45:11.264Z,97205.84
2023-02-24T05:48:17.188Z,97212.48
2023-02-24T05:51:20.695Z,97211.46
2023-02-24T05:54:30.917Z,97205.84
2023-02-24T05:57:35.768Z,97206.85
2023-02-24T06:00:39.966Z,97207.09
2023-02-24T06:03:48.031Z,97204.65
2023-02-24T06:06:52.596Z,97199.67
2023-02-24T06:09:58.634Z,97201.31
2023-02-24T06:13:02.581Z,97201.79
2023-02-24T06:16:06.934Z,97201.48
2023-02-24T06:19:12.293Z,97198.13
2023-02-24T06:22:19.151Z,97197.50
2023-02-24T06:25:25.084Z,97195.24
2023-02-24T06:28:28.889Z,97191.48
2023-02-24T06:31:32.181Z,97192.27
2023-02-24T06:34:36.259Z,97190.23
2023-02-24T06:37:39.651Z,97187.91
2023-02-24T06:40:42.863Z,97188.99
2023-02-24T06:43:48.313Z,97186.57
2023-02-24T06:46:51.507Z,97186.88
2023-02-24T06:49:54.745Z,97188.59
2023-02-24T06:53:00.927Z,97187.11
2023-02-24T06:56:07.130Z,97187.80
2023-02-24T06:59:16.015Z,97189.14
2023-02-24T07:02:19.182Z,97191.01
2023-02-24T07:05:24.278Z,97185.84
2023-02-24T07:08:27.484Z,97186.08
2023-02-24T07:11:31.015Z,97184.13
2023-02-24T07:14:37.046Z,97184.05
2023-02-24T07:17:40.373Z,97183.82
2023-02-24T07:20:46.200Z,97180.52
2023-02-24T07:23:50.747Z,97180.77
2023-02-24T07:27:23.353Z,97178.12
2023-02-24T07:30:26.888Z,97176.79
2023-02-24T07:33:30.085Z,97172.73
2023-02-24T07:36:38.986Z,97169.52
2023-02-24T07:39:43.214Z,97163.27
2023-02-24T07:42:47.763Z,97158.04
2023-02-24T07:45:52.894Z,97154.75
2023-02-24T07:48:59.321Z,97157.96
2023-02-24T07:52:02.723Z,97155.30
2023-02-24T07:55:09.060Z,97152.58
2023-02-24T07:58:12.406Z,97150.30
2023-02-24T08:01:23.315Z,97142.95
2023-02-24T08:04:29.346Z,97141.17
2023-02-24T08:07:34.086Z,97138.12
2023-02-24T08:10:37.382Z,97136.77
2023-02-24T08:13:40.718Z,97136.63
2023-02-24T08:16:45.927Z,97135.75
2023-02-24T08:20:08.652Z,97135.44
2023-02-24T08:23:14.333Z,97132.30
2023-02-24T08:26:19.610Z,97129.79
2023-02-24T08:29:23.023Z,97126.11
2023-02-24T08:32:43.622Z,97124.00
2023-02-24T08:35:52.180Z,97126.09
2023-02-24T08:38:59.389Z,97123.90
2023-02-24T08:42:03.136Z,97123.27
2023-02-24T08:45:07.056Z,97115.85
2023-02-24T08:48:18.672Z,97115.20
2023-02-24T08:51:30.010Z,97110.17
2023-02-24T08:54:33.845Z,97103.04
2023-02-24T08:57:37.222Z,97100.14
2023-02-24T09:00:49.355Z,97098.09
2023-02-24T09:03:56.640Z,97097.90
2023-02-24T09:07:11.254Z,97095.38
2023-02-24T09:10:18.442Z,97092.71
2023-02-24T09:13:21.767Z,97090.57
2023-02-24T09:16:25.526Z,97090.70
2023-02-24T09:19:46.615Z,97088.02
2023-02-24T09:23:07.397Z,97080.73
2023-02-24T09:26:11.254Z,97081.59
2023-02-24T09:29:33.739Z,97077.42
2023-02-24T09:32:37.220Z,97076.10
2023-02-24T09:35:42.853Z,97072.30
2023-02-24T09:39:01.576Z,97067.38
2023-02-24T09:42:12.663Z,97069.65
2023-02-24T09:45:33.578Z,97063.65
2023-02-24T09:48:46.292Z,97060.05
2023-02-24T09:52:00.338Z,97052.70
2023-02-24T09:55:22.290Z,97056.00
2023-02-24T09:58:43.702Z,97054.83
2023-02-24T10:02:10.261Z,97054.52
2023-02-24T10:05:27.808Z,97049.97
2023-02-24T10:08:38.384Z,97041.67
2023-02-24T10:11:54.094Z,97031.64
2023-02-24T10:15:32.413Z,97030.74
2023-02-24T10:19:15.137Z,97036.83
2023-02-24T10:22:29.980Z,97036.73
2023-02-24T10:25:54.022Z,97027.86
2023-02-24T10:29:29.552Z,97018.26
2023-02-24T10:32:47.281Z,97019.50
2023-02-24T10:35:51.604Z,97012.84
2023-02-24T10:38:56.392Z,97007.16
2023-02-24T10:42:22.862Z,96999.69
2023-02-24T10:45:34.772Z,96989.74
2023-02-24T10:48:42.794Z,96979.27
2023-02-24T10:51:53.293Z,96964.92
2023-02-24T10:55:28.332Z,96964.67
2023-02-24T10:58:38.314Z,96969.73
2023-02-24T11:01:59.180Z,96959.39
2023-02-24T11:05:27.418Z,96952.33
2023-02-24T11:08:39.952Z,96944.10
2023-02-24T11:12:01.860Z,96941.82
2023-02-24T11:15:36.557Z,96943.61
2023-02-24T11:18:45.963Z,96940.95
2023-02-24T11:21:49.476Z,96939.95
2023-02-24T11:24:53.871Z,96930.10
2023-02-24T11:27:57.964Z,96928.31
2023-02-24T11:31:07.361Z,96917.91
2023-02-24T11:34:30.160Z,96900.02
2023-02-24T11:37:47.020Z,96894.40
2023-02-24T11:41:02.922Z,96888.31
2023-02-24T11:44:15.742Z,96872.48
2023-02-24T11:47:24.236Z,96872.30
2023-02-24T11:50:55.807Z,96869.79
2023-02-24T11:54:03.319Z,96869.66
2023-02-24T11:57:15.457Z,96863.90
2023-02-24T12:00:23.698Z,96857.65
2023-02-24T12:03:49.567Z,96854.77
2023-02-24T12:07:09.316Z,96850.10
2023-02-24T12:10:22.664Z,96851.94
2023-02-24T12:13:48.796Z,96842.13
2023-02-24T12:17:00.370Z,96843.84
2023-02-24T12:20:30.596Z,96838.70
2023-02-24T12:23:40.353Z,96835.05
2023-02-24T12:27:02.736Z,96830.55
2023-02-24T12:30:34.103Z,96821.48
2023-02-24T12:33:42.926Z,96812.27
2023-02-24T12:36:54.957Z,96808.20
2023-02-24T12:40:01.314Z,96799.83
2023-02-24T12:43:19.911Z,96798.00
2023-02-24T12:46:33.646Z,96785.77
2023-02-24T12:49:40.377Z,96779.61
2023-02-24T12:52:49.433Z,96778.39
2023-02-24T12:55:56.859Z,96775.55
2023-02-24T12:59:05.574Z,96772.60
2023-02-24T13:02:56.684Z,96770.86
2023-02-24T13:06:20.937Z,96770.02
2023-02-24T13:09:54.333Z,96765.09
2023-02-24T13:13:18.829Z,96757.17
2023-02-24T13:16:30.661Z,96752.54
2023-02-24T13:19:34.081Z,96746.27
2023-02-24T13:22:42.117Z,96740.16
2023-02-24T13:25:52.447Z,96734.47
2023-02-24T13:29:00.613Z,96730.78
2023-02-24T13:32:04.769Z,96728.52
2023-02-24T13:35:14.323Z,96723.08
2023-02-24T13:38:25.434Z,96708.54
2023-02-24T13:41:28.679Z,96699.86
2023-02-24T13:44:32.799Z,96700.89
2023-02-24T13:47:59.349Z,96699.73
2023-02-24T13:51:35.227Z,96695.21
2023-02-24T13:54:38.713Z,96693.42
2023-02-24T13:57:45.082Z,96684.73
2023-02-24T14:01:05.191Z,96689.59
2023-02-24T14:04:27.308Z,96697.02
2023-02-24T14:07:36.381Z,96691.34
2023-02-24T14:10:46.033Z,96686.71
2023-02-24T14:13:53.022Z,96689.59
2023-02-24T14:16:56.443Z,96683.14
2023-02-24T14:20:20.432Z,96676.58
2023-02-24T14:23:30.090Z,96673.31
2023-02-24T14:26:42.811Z,96669.42
2023-02-24T14:29:46.118Z,96669.46
2023-02-24T14:32:49.613Z,96664.61
2023-02-24T14:35:53.258Z,96669.77
2023-02-24T14:39:01.982Z,96676.42
2023-02-24T14:42:13.297Z,96672.63
2023-02-24T14:45:18.709Z,96667.34
2023-02-24T14:48:29.977Z,96661.98
2023-02-24T14:51:36.199Z,96657.93
2023-02-24T14:54:48.593Z,96652.47
2023-02-24T14:57:56.647Z,96643.54
2023-02-24T15:01:15.269Z,96636.23
2023-02-24T15:04:37.429Z,96628.79
2023-02-24T15:07:45.287Z,96626.48
2023-02-24T15:10:48.924Z,96630.52
2023-02-24T15:14:08.452Z,96619.25
2023-02-24T15:17:17.437Z,96603.27
2023-02-24T15:20:40.854Z,96601.36
2023-02-24T15:23:45.914Z,96596.28
2023-02-24T15:26:54.874Z,96599.90
2023-02-24T15:30:08.603Z,96595.37
2023-02-24T15:33:21.812Z,96584.35
2023-02-24T15:36:32.191Z,96574.30
2023-02-24T15:39:37.125Z,96570.41
2023-02-24T15:42:55.073Z,96564.06
2023-02-24T15:45:58.440Z,96570.50
2023-02-24T15:49:04.726Z,96565.17
2023-02-24T15:52:10.582Z,96555.08
2023-02-24T15:55:21.862Z,96576.52
2023-02-24T15:58:25.711Z,96582.77
2023-02-24T16:01:31.001Z,96567.95
2023-02-24T16:04:34.373Z,96563.19
2023-02-24T16:07:38.291Z,96553.05
2023-02-24T16:11:10.317Z,96545.53
2023-02-24T16:14:18.417Z,96557.52
2023-02-24T16:17:27.212Z,96543.56
2023-02-24T16:20:39.757Z,96549.64
2023-02-24T16:23:43.235Z,96544.35
2023-02-24T16:26:46.535Z,96534.98
2023-02-24T16:29:49.733Z,96541.13
2023-02-24T16:32:53.195Z,96537.64
2023-02-24T16:35:56.787Z,96548.98
2023-02-24T16:39:01.215Z,96552.89
2023-02-24T16:42:07.397Z,96539.60
2023-02-24T16:45:11.096Z,96535.23
2023-02-24T16:48:24.504Z,96529.70
2023-02-24T16:51:29.114Z,96526.50
2023-02-24T16:54:32.317Z,96518.67
2023-02-24T16:57:35.685Z,96518.98
2023-02-24T17:00:40.816Z,96514.19
2023-02-24T17:03:46.682Z,96506.14
2023-02-24T17:06:49.958Z,96498.10
2023-02-24T17:09:53.181Z,96499.06
2023-02-24T17:12:56.402Z,96495.48
2023-02-24T17:16:03.602Z,96495.80
2023-02-24T17:19:06.983Z,96499.66
2023-02-24T17:22:10.501Z,96505.80
2023-02-24T17:25:20.211Z,96500.02
2023-02-24T17:28:23.881Z,96496.52
2023-02-24T17:31:31.901Z,96495.77
2023-02-24T17:34:35.491Z,96490.23
2023-02-24T17:37:39.841Z,96480.84
2023-02-24T17:40:44.695Z,96477.77
2023-02-24T17:43:50.866Z,96475.23
2023-02-24T17:46:54.535Z,96468.52
2023-02-24T17:49:58.025Z,96465.63
2023-02-24T17:53:01.474Z,96466.35
2023-02-24T17:56:06.023Z,96468.61
2023-02-24T17:59:09.645Z,96460.02
2023-02-24T18:02:17.604Z,96459.89
2023-02-24T18:05:21.450Z,96457.11
2023-02-24T18:08:24.804Z,96454.92
2023-02-24T18:11:28.028Z,96447.42
2023-02-24T18:14:31.397Z,96442.81
2023-02-24T18:17:35.761Z,96440.86
2023-02-24T18:20:43.615Z,96438.29
2023-02-24T18:23:49.145Z,96431.80
2023-02-24T18:26:52.397Z,96425.55
2023-02-24T18:29:56.039Z,96422.17
2023-02-24T18:32:59.644Z,96413.20
2023-02-24T18:36:02.987Z,96410.80
2023-02-24T18:39:06.262Z,96411.98
2023-02-24T18:42:09.873Z,96404.72
2023-02-24T18:45:13.125Z,96404.41
2023-02-24T18:48:16.404Z,96395.43
2023-02-24T18:51:22.459Z,96389.58
2023-02-24T18:54:25.901Z,96387.77
2023-02-24T18:57:29.343Z,96380.26
2023-02-24T19:00:32.604Z,96378.35
2023-02-24T19:03:35.789Z,96373.98
2023-02-24T19:06:40.720Z,96370.38
2023-02-24T19:09:46.885Z,96370.30
2023-02-24T19:12:52.041Z,96366.45
2023-02-24T19:15:55.315Z,96359.66
2023-02-24T19:19:00.082Z,96362.16
2023-02-24T19:22:03.277Z,96359.34
2023-02-24T19:25:06.600Z,96353.02
2023-02-24T19:28:09.814Z,96351.13
2023-02-24T19:31:20.492Z,96341.90
2023-02-24T19:34:23.946Z,96336.65
2023-02-24T19:37:27.193Z,96333.74
2023-02-24T19:40:30.476Z,96327.81
2023-02-24T19:43:33.816Z,96324.20
2023-02-24T19:46:38.158Z,96315.23
2023-02-24T19:49:41.519Z,96309.92
2023-02-24T19:52:44.821Z,96301.31
2023-02-24T19:55:49.790Z,96291.08
2023-02-24T19:58:54.685Z,96292.96
2023-02-24T20:01:58.117Z,96295.52
2023-02-24T20:05:01.372Z,96292.29
2023-02-24T20:08:04.689Z,96283.21
2023-02-24T20:11:07.872Z,96282.23
2023-02-24T20:14:12.696Z,96275.96
2023-02-24T20:17:17.510Z,96265.45
2023-02-24T20:20:20.938Z,96259.27
2023-02-24T20:23:24.329Z,96255.59
2023-02-24T20:26:28.679Z,96251.15
2023-02-24T20:29:33.709Z,96243.69
2023-02-24T20:32:37.767Z,96233.11
2023-02-24T20:35:41.307Z,96224.34
2023-02-24T20:38:44.803Z,96218.00
2023-02-24T20:41:50.498Z,96212.70
2023-02-24T20:44:53.753Z,96206.68
2023-02-24T20:47:57.004Z,96203.02
2023-02-24T20:51:04.139Z,96209.83
2023-02-24T20:54:09.675Z,96206.63
2023-02-24T20:57:12.934Z,96208.33
2023-02-24T21:00:17.083Z,96203.30
2023-02-24T21:03:21.981Z,96202.04
2023-02-24T21:06:26.061Z,96200.69
2023-02-24T21:09:29.432Z,96195.28
2023-02-24T21:12:34.374Z,96189.00
2023-02-24T21:15:40.240Z,96191.95
2023-02-24T21:18:45.548Z,96192.26
2023-02-24T21:21:48.892Z,96193.67
2023-02-24T21:24:52.260Z,96189.63
2023-02-24T21:27:55.829Z,96189.23
2023-02-24T21:30:59.298Z,96182.14
2023-02-24T21:34:02.810Z,96178.60
2023-02-24T21:37:06.243Z,96171.91
2023-02-24T21:40:13.084Z,96161.20
2023-02-24T21:43:17.838Z,96150.92
2023-02-24T21:46:22.090Z,96137.52
2023-02-24T21:49:26.566Z,96132.02
2023-02-24T21:52:30.036Z,96123.13
2023-02-24T21:55:34.151Z,96117.23
2023-02-24T21:58:39.484Z,96119.52
2023-02-24T22:01:45.249Z,96118.86
2023-02-24T22:04:49.409Z,96120.20
2023-02-24T22:07:53.123Z,96121.99
2023-02-24T22:11:01.087Z,96111.22
2023-02-24T22:14:08.393Z,96115.42
2023-02-24T22:17:11.833Z,96106.83
2023-02-24T22:20:15.192Z,96105.05
2023-02-24T22:23:18.577Z,96102.29
2023-02-24T22:26:25.801Z,96106.60
2023-02-24T22:29:29.177Z,96107.17
2023-02-24T22:32:32.589Z,96115.50
2023-02-24T22:35:36.687Z,96118.36
2023-02-24T22:38:40.770Z,96121.54
2023-02-24T22:41:45.556Z,96124.30
2023-02-24T22:44:48.879Z,96132.20
2023-02-24T22:47:52.266Z,96129.66
2023-02-24T22:50:57.869Z,96131.72
2023-02-24T22:54:01.215Z,96121.17
2023-02-24T22:57:04.547Z,96114.25
2023-02-24T23:00:10.874Z,96104.19
2023-02-24T23:03:16.385Z,96088.88
2023-02-24T23:06:23.315Z,96101.90
2023-02-24T23:09:28.116Z,96097.94
2023-02-24T23:12:31.429Z,96099.17
2023-02-24T23:15:39.040Z,96103.27
2023-02-24T23:18:48.608Z,96109.16
2023-02-24T23:21:53.618Z,96105.61
2023-02-24T23:24:56.822Z,96101.83
2023-02-24T23:28:00.297Z,96090.46
2023-02-24T23:31:03.973Z,96073.14
2023-02-24T23:34:07.696Z,96077.95
2023-02-24T23:37:12.174Z,96074.33
2023-02-24T23:40:15.741Z,96073.75
2023-02-24T23:43:18.978Z,96076.67
2023-02-24T23:46:22.663Z,96070.11
2023-02-24T23:49:36.152Z,96067.91
2023-02-24T23:52:45.826Z,96069.29
2023-02-24T23:55:50.486Z,96072.23
2023-02-24T23:58:57.001Z,96067.98
